sensor_id;sensor_type;location;lat;lon;timestamp;P1;durP1;ratioP1;P2;durP2;ratioP2
61460;SDS011;47325;50.506;4.472;2023-09-19T00:03:19;3.80;;;1.30;;
61460;SDS011;47325;50.506;4.472;2023-09-19T00:09:04;5.90;;;1.30;;
61460;SDS011;47325;50.506;4.472;2023-09-19T00:14:48;3.20;;;1.10;;
61460;SDS011;47325;50.506;4.472;2023-09-19T00:20:35;5.30;;;1.30;;
61460;SDS011;47325;50.506;4.472;2023-09-19T00:26:25;5.20;;;1.40;;
61460;SDS011;47325;50.506;4.472;2023-09-19T00:32:15;5.50;;;1.30;;
61460;SDS011;47325;50.506;4.472;2023-09-19T00:37:59;4.70;;;1.20;;
61460;SDS011;47325;50.506;4.472;2023-09-19T00:43:44;5.90;;;1.30;;
61460;SDS011;47325;50.506;4.472;2023-09-19T00:49:28;5.20;;;1.20;;
61460;SDS011;47325;50.506;4.472;2023-09-19T00:55:13;5.10;;;1.40;;
61460;SDS011;47325;50.506;4.472;2023-09-19T01:00:58;5.40;;;1.30;;
61460;SDS011;47325;50.506;4.472;2023-09-19T01:06:43;5.40;;;1.10;;
61460;SDS011;47325;50.506;4.472;2023-09-19T01:12:29;6.10;;;1.30;;
61460;SDS011;47325;50.506;4.472;2023-09-19T01:18:16;4.40;;;1.20;;
61460;SDS011;47325;50.506;4.472;2023-09-19T01:24:07;3.80;;;1.20;;
61460;SDS011;47325;50.506;4.472;2023-09-19T01:35:38;3.80;;;1.20;;
61460;SDS011;47325;50.506;4.472;2023-09-19T01:41:24;4.50;;;1.40;;
61460;SDS011;47325;50.506;4.472;2023-09-19T01:47:13;5.10;;;1.40;;
61460;SDS011;47325;50.506;4.472;2023-09-19T01:53:02;5.80;;;1.40;;
61460;SDS011;47325;50.506;4.472;2023-09-19T01:58:48;7.40;;;1.40;;
61460;SDS011;47325;50.506;4.472;2023-09-19T02:04:36;6.10;;;1.40;;
61460;SDS011;47325;50.506;4.472;2023-09-19T02:10:21;4.50;;;1.20;;
61460;SDS011;47325;50.506;4.472;2023-09-19T02:16:05;7.80;;;1.40;;
61460;SDS011;47325;50.506;4.472;2023-09-19T02:21:50;2.90;;;1.30;;
61460;SDS011;47325;50.506;4.472;2023-09-19T02:27:35;4.00;;;1.20;;
61460;SDS011;47325;50.506;4.472;2023-09-19T02:33:19;4.20;;;1.20;;
61460;SDS011;47325;50.506;4.472;2023-09-19T02:39:03;4.30;;;1.40;;
61460;SDS011;47325;50.506;4.472;2023-09-19T02:44:48;6.00;;;1.60;;
61460;SDS011;47325;50.506;4.472;2023-09-19T02:50:33;5.80;;;1.30;;
61460;SDS011;47325;50.506;4.472;2023-09-19T02:56:17;4.70;;;1.20;;
61460;SDS011;47325;50.506;4.472;2023-09-19T03:02:02;5.50;;;1.30;;
61460;SDS011;47325;50.506;4.472;2023-09-19T03:07:47;5.90;;;1.20;;
61460;SDS011;47325;50.506;4.472;2023-09-19T03:13:31;5.10;;;1.30;;
61460;SDS011;47325;50.506;4.472;2023-09-19T03:19:16;4.70;;;1.50;;
61460;SDS011;47325;50.506;4.472;2023-09-19T03:25:00;5.30;;;1.30;;
61460;SDS011;47325;50.506;4.472;2023-09-19T03:30:45;5.60;;;1.30;;
61460;SDS011;47325;50.506;4.472;2023-09-19T03:36:29;3.60;;;1.10;;
61460;SDS011;47325;50.506;4.472;2023-09-19T03:42:13;5.60;;;1.60;;
61460;SDS011;47325;50.506;4.472;2023-09-19T03:47:58;4.00;;;1.10;;
61460;SDS011;47325;50.506;4.472;2023-09-19T03:53:42;4.30;;;1.30;;
61460;SDS011;47325;50.506;4.472;2023-09-19T03:59:27;4.60;;;1.50;;
61460;SDS011;47325;50.506;4.472;2023-09-19T04:05:11;4.10;;;1.20;;
61460;SDS011;47325;50.506;4.472;2023-09-19T04:10:56;4.60;;;1.40;;
61460;SDS011;47325;50.506;4.472;2023-09-19T04:16:40;4.50;;;1.40;;
61460;SDS011;47325;50.506;4.472;2023-09-19T04:22:25;5.60;;;1.30;;
61460;SDS011;47325;50.506;4.472;2023-09-19T04:28:10;4.70;;;1.40;;
61460;SDS011;47325;50.506;4.472;2023-09-19T04:33:55;4.60;;;1.30;;
61460;SDS011;47325;50.506;4.472;2023-09-19T04:39:39;4.50;;;1.30;;
61460;SDS011;47325;50.506;4.472;2023-09-19T04:45:24;9.90;;;1.40;;
61460;SDS011;47325;50.506;4.472;2023-09-19T04:51:08;4.00;;;1.50;;
61460;SDS011;47325;50.506;4.472;2023-09-19T04:56:53;4.00;;;1.00;;
61460;SDS011;47325;50.506;4.472;2023-09-19T05:02:37;5.00;;;1.40;;
61460;SDS011;47325;50.506;4.472;2023-09-19T05:08:22;5.00;;;1.10;;
61460;SDS011;47325;50.506;4.472;2023-09-19T05:14:07;4.00;;;1.30;;
61460;SDS011;47325;50.506;4.472;2023-09-19T05:19:51;6.60;;;1.60;;
61460;SDS011;47325;50.506;4.472;2023-09-19T05:25:36;5.00;;;1.70;;
61460;SDS011;47325;50.506;4.472;2023-09-19T05:31:21;8.30;;;1.40;;
61460;SDS011;47325;50.506;4.472;2023-09-19T05:37:06;4.50;;;1.60;;
61460;SDS011;47325;50.506;4.472;2023-09-19T05:42:51;5.70;;;1.50;;
61460;SDS011;47325;50.506;4.472;2023-09-19T05:48:35;5.20;;;1.10;;
61460;SDS011;47325;50.506;4.472;2023-09-19T05:54:19;4.30;;;1.30;;
61460;SDS011;47325;50.506;4.472;2023-09-19T06:00:04;4.00;;;1.20;;
61460;SDS011;47325;50.506;4.472;2023-09-19T06:05:48;4.80;;;1.20;;
61460;SDS011;47325;50.506;4.472;2023-09-19T06:11:33;5.50;;;1.50;;
61460;SDS011;47325;50.506;4.472;2023-09-19T06:17:17;4.10;;;1.40;;
61460;SDS011;47325;50.506;4.472;2023-09-19T06:23:02;5.50;;;1.30;;
61460;SDS011;47325;50.506;4.472;2023-09-19T06:28:47;4.90;;;1.30;;
61460;SDS011;47325;50.506;4.472;2023-09-19T06:34:32;4.20;;;1.20;;
61460;SDS011;47325;50.506;4.472;2023-09-19T06:40:17;5.90;;;1.30;;
61460;SDS011;47325;50.506;4.472;2023-09-19T06:46:02;7.20;;;1.40;;
61460;SDS011;47325;50.506;4.472;2023-09-19T06:51:47;5.50;;;1.30;;
61460;SDS011;47325;50.506;4.472;2023-09-19T06:57:34;4.40;;;1.40;;
61460;SDS011;47325;50.506;4.472;2023-09-19T07:03:18;4.90;;;1.30;;
61460;SDS011;47325;50.506;4.472;2023-09-19T07:09:03;5.60;;;1.30;;
61460;SDS011;47325;50.506;4.472;2023-09-19T07:14:48;5.10;;;1.30;;
61460;SDS011;47325;50.506;4.472;2023-09-19T07:20:32;3.70;;;1.10;;
61460;SDS011;47325;50.506;4.472;2023-09-19T07:26:17;3.40;;;1.20;;
61460;SDS011;47325;50.506;4.472;2023-09-19T07:32:01;4.30;;;1.30;;
61460;SDS011;47325;50.506;4.472;2023-09-19T07:37:46;5.90;;;1.50;;
61460;SDS011;47325;50.506;4.472;2023-09-19T07:43:33;6.60;;;1.50;;
61460;SDS011;47325;50.506;4.472;2023-09-19T07:49:17;8.20;;;2.00;;
61460;SDS011;47325;50.506;4.472;2023-09-19T07:55:03;7.40;;;1.60;;
61460;SDS011;47325;50.506;4.472;2023-09-19T08:00:48;7.90;;;1.90;;
61460;SDS011;47325;50.506;4.472;2023-09-19T08:06:34;7.10;;;1.50;;
61460;SDS011;47325;50.506;4.472;2023-09-19T08:12:21;7.20;;;1.80;;
61460;SDS011;47325;50.506;4.472;2023-09-19T08:18:06;6.50;;;1.50;;
61460;SDS011;47325;50.506;4.472;2023-09-19T08:23:51;5.80;;;1.30;;
61460;SDS011;47325;50.506;4.472;2023-09-19T08:29:38;4.90;;;1.60;;
61460;SDS011;47325;50.506;4.472;2023-09-19T08:35:23;5.60;;;1.50;;
61460;SDS011;47325;50.506;4.472;2023-09-19T08:41:08;6.10;;;1.40;;
61460;SDS011;47325;50.506;4.472;2023-09-19T08:46:54;6.70;;;1.40;;
61460;SDS011;47325;50.506;4.472;2023-09-19T08:52:41;5.00;;;1.30;;
61460;SDS011;47325;50.506;4.472;2023-09-19T08:58:30;5.20;;;1.20;;
61460;SDS011;47325;50.506;4.472;2023-09-19T09:04:15;4.60;;;1.40;;
61460;SDS011;47325;50.506;4.472;2023-09-19T09:10:00;4.90;;;1.20;;
61460;SDS011;47325;50.506;4.472;2023-09-19T09:15:46;4.40;;;1.10;;
61460;SDS011;47325;50.506;4.472;2023-09-19T09:21:30;4.90;;;1.10;;
61460;SDS011;47325;50.506;4.472;2023-09-19T09:27:15;4.70;;;1.40;;
61460;SDS011;47325;50.506;4.472;2023-09-19T09:33:08;4.40;;;1.10;;
61460;SDS011;47325;50.506;4.472;2023-09-19T09:38:56;5.90;;;1.20;;
61460;SDS011;47325;50.506;4.472;2023-09-19T09:44:41;5.50;;;1.20;;
61460;SDS011;47325;50.506;4.472;2023-09-19T09:50:31;4.10;;;1.20;;
61460;SDS011;47325;50.506;4.472;2023-09-19T09:56:16;4.10;;;1.10;;
61460;SDS011;47325;50.506;4.472;2023-09-19T10:02:05;3.20;;;1.10;;
61460;SDS011;47325;50.506;4.472;2023-09-19T10:07:50;4.30;;;1.30;;
61460;SDS011;47325;50.506;4.472;2023-09-19T10:13:35;4.40;;;1.20;;
61460;SDS011;47325;50.506;4.472;2023-09-19T10:19:27;3.20;;;1.00;;
61460;SDS011;47325;50.506;4.472;2023-09-19T10:25:13;2.80;;;0.90;;
61460;SDS011;47325;50.506;4.472;2023-09-19T10:30:58;3.50;;;0.90;;
61460;SDS011;47325;50.506;4.472;2023-09-19T10:36:44;4.30;;;1.10;;
61460;SDS011;47325;50.506;4.472;2023-09-19T10:42:28;2.10;;;0.80;;
61460;SDS011;47325;50.506;4.472;2023-09-19T10:48:15;3.40;;;0.90;;
61460;SDS011;47325;50.506;4.472;2023-09-19T10:54:01;5.20;;;0.90;;
61460;SDS011;47325;50.506;4.472;2023-09-19T10:59:52;2.20;;;0.80;;
61460;SDS011;47325;50.506;4.472;2023-09-19T11:05:41;2.60;;;0.90;;
61460;SDS011;47325;50.506;4.472;2023-09-19T11:23:27;3.20;;;0.80;;
61460;SDS011;47325;50.506;4.472;2023-09-19T11:35:10;3.00;;;1.00;;
61460;SDS011;47325;50.506;4.472;2023-09-19T11:46:57;3.30;;;0.90;;
61460;SDS011;47325;50.506;4.472;2023-09-19T11:52:42;1.70;;;0.70;;
61460;SDS011;47325;50.506;4.472;2023-09-19T11:58:27;2.70;;;0.80;;
61460;SDS011;47325;50.506;4.472;2023-09-19T12:04:12;4.40;;;0.90;;
61460;SDS011;47325;50.506;4.472;2023-09-19T12:10:06;2.30;;;0.70;;
61460;SDS011;47325;50.506;4.472;2023-09-19T12:15:51;3.10;;;0.80;;
61460;SDS011;47325;50.506;4.472;2023-09-19T12:21:35;2.40;;;0.70;;
61460;SDS011;47325;50.506;4.472;2023-09-19T12:27:20;3.10;;;0.60;;
61460;SDS011;47325;50.506;4.472;2023-09-19T12:33:04;3.60;;;0.70;;
61460;SDS011;47325;50.506;4.472;2023-09-19T12:38:50;2.10;;;0.70;;
61460;SDS011;47325;50.506;4.472;2023-09-19T12:44:35;3.70;;;0.50;;
61460;SDS011;47325;50.506;4.472;2023-09-19T12:50:19;2.20;;;0.70;;
61460;SDS011;47325;50.506;4.472;2023-09-19T12:56:04;2.70;;;0.70;;
61460;SDS011;47325;50.506;4.472;2023-09-19T13:01:48;3.40;;;0.90;;
61460;SDS011;47325;50.506;4.472;2023-09-19T13:07:45;2.80;;;0.60;;
61460;SDS011;47325;50.506;4.472;2023-09-19T13:13:30;2.50;;;0.70;;
61460;SDS011;47325;50.506;4.472;2023-09-19T13:19:34;1.90;;;0.70;;
61460;SDS011;47325;50.506;4.472;2023-09-19T13:25:04;1.80;;;0.60;;
61460;SDS011;47325;50.506;4.472;2023-09-19T13:30:49;2.10;;;0.70;;
61460;SDS011;47325;50.506;4.472;2023-09-19T13:36:35;2.70;;;0.60;;
61460;SDS011;47325;50.506;4.472;2023-09-19T13:42:26;2.90;;;0.70;;
61460;SDS011;47325;50.506;4.472;2023-09-19T13:48:18;2.60;;;0.70;;
61460;SDS011;47325;50.506;4.472;2023-09-19T13:54:08;2.80;;;0.70;;
61460;SDS011;47325;50.506;4.472;2023-09-19T13:59:54;1.90;;;0.60;;
61460;SDS011;47325;50.506;4.472;2023-09-19T14:05:40;3.00;;;0.80;;
61460;SDS011;47325;50.506;4.472;2023-09-19T14:11:29;2.90;;;0.80;;
61460;SDS011;47325;50.506;4.472;2023-09-19T14:17:24;2.80;;;0.80;;
61460;SDS011;47325;50.506;4.472;2023-09-19T14:23:12;2.20;;;0.60;;
61460;SDS011;47325;50.506;4.472;2023-09-19T14:29:03;2.20;;;0.80;;
61460;SDS011;47325;50.506;4.472;2023-09-19T14:34:53;2.50;;;0.60;;
61460;SDS011;47325;50.506;4.472;2023-09-19T14:40:43;1.90;;;0.70;;
61460;SDS011;47325;50.506;4.472;2023-09-19T14:46:43;3.40;;;0.80;;
61460;SDS011;47325;50.506;4.472;2023-09-19T14:53:03;2.40;;;0.80;;
61460;SDS011;47325;50.506;4.472;2023-09-19T14:58:51;2.30;;;0.80;;
61460;SDS011;47325;50.506;4.472;2023-09-19T15:04:46;2.50;;;0.60;;
61460;SDS011;47325;50.506;4.472;2023-09-19T15:10:38;2.20;;;0.70;;
61460;SDS011;47325;50.506;4.472;2023-09-19T15:16:32;2.50;;;0.70;;
61460;SDS011;47325;50.506;4.472;2023-09-19T15:22:28;2.10;;;0.70;;
61460;SDS011;47325;50.506;4.472;2023-09-19T15:28:22;1.80;;;0.80;;
61460;SDS011;47325;50.506;4.472;2023-09-19T15:34:08;3.00;;;0.80;;
61460;SDS011;47325;50.506;4.472;2023-09-19T15:40:00;1.80;;;0.70;;
61460;SDS011;47325;50.506;4.472;2023-09-19T15:45:58;2.30;;;0.70;;
61460;SDS011;47325;50.506;4.472;2023-09-19T15:51:45;3.50;;;0.70;;
61460;SDS011;47325;50.506;4.472;2023-09-19T15:57:34;2.20;;;0.90;;
61460;SDS011;47325;50.506;4.472;2023-09-19T16:03:26;3.10;;;0.70;;
61460;SDS011;47325;50.506;4.472;2023-09-19T16:09:23;1.10;;;0.60;;
61460;SDS011;47325;50.506;4.472;2023-09-19T16:15:19;2.50;;;0.80;;
61460;SDS011;47325;50.506;4.472;2023-09-19T16:21:11;1.90;;;0.80;;
61460;SDS011;47325;50.506;4.472;2023-09-19T16:26:55;3.40;;;0.80;;
61460;SDS011;47325;50.506;4.472;2023-09-19T16:32:47;3.50;;;0.80;;
61460;SDS011;47325;50.506;4.472;2023-09-19T16:38:33;4.40;;;0.90;;
61460;SDS011;47325;50.506;4.472;2023-09-19T16:44:25;2.90;;;0.80;;
61460;SDS011;47325;50.506;4.472;2023-09-19T16:50:19;3.50;;;0.80;;
61460;SDS011;47325;50.506;4.472;2023-09-19T16:56:15;2.60;;;0.80;;
61460;SDS011;47325;50.506;4.472;2023-09-19T17:02:04;1.90;;;0.90;;
61460;SDS011;47325;50.506;4.472;2023-09-19T17:07:52;3.80;;;1.00;;
61460;SDS011;47325;50.506;4.472;2023-09-19T17:13:39;2.80;;;0.90;;
61460;SDS011;47325;50.506;4.472;2023-09-19T17:19:25;3.00;;;0.90;;
61460;SDS011;47325;50.506;4.472;2023-09-19T17:25:17;2.90;;;1.00;;
61460;SDS011;47325;50.506;4.472;2023-09-19T17:31:13;1.80;;;0.90;;
61460;SDS011;47325;50.506;4.472;2023-09-19T17:37:03;2.60;;;1.10;;
61460;SDS011;47325;50.506;4.472;2023-09-19T17:42:51;2.20;;;0.90;;
61460;SDS011;47325;50.506;4.472;2023-09-19T17:48:43;2.70;;;0.90;;
61460;SDS011;47325;50.506;4.472;2023-09-19T17:54:36;3.40;;;1.00;;
61460;SDS011;47325;50.506;4.472;2023-09-19T18:00:21;3.30;;;1.00;;
61460;SDS011;47325;50.506;4.472;2023-09-19T18:06:14;1.50;;;0.80;;
61460;SDS011;47325;50.506;4.472;2023-09-19T18:12:00;2.70;;;0.90;;
61460;SDS011;47325;50.506;4.472;2023-09-19T18:17:46;2.60;;;1.00;;
61460;SDS011;47325;50.506;4.472;2023-09-19T18:23:31;2.40;;;0.90;;
61460;SDS011;47325;50.506;4.472;2023-09-19T18:29:19;3.10;;;0.80;;
61460;SDS011;47325;50.506;4.472;2023-09-19T18:35:15;3.80;;;1.10;;
61460;SDS011;47325;50.506;4.472;2023-09-19T18:41:12;2.20;;;1.10;;
61460;SDS011;47325;50.506;4.472;2023-09-19T18:47:03;1.90;;;0.90;;
61460;SDS011;47325;50.506;4.472;2023-09-19T18:52:49;3.90;;;0.90;;
61460;SDS011;47325;50.506;4.472;2023-09-19T18:58:41;4.00;;;1.10;;
61460;SDS011;47325;50.506;4.472;2023-09-19T19:04:32;2.80;;;0.80;;
61460;SDS011;47325;50.506;4.472;2023-09-19T19:10:27;3.60;;;0.90;;
61460;SDS011;47325;50.506;4.472;2023-09-19T19:16:17;2.10;;;0.80;;
61460;SDS011;47325;50.506;4.472;2023-09-19T19:22:03;1.90;;;0.90;;
61460;SDS011;47325;50.506;4.472;2023-09-19T19:27:48;3.80;;;1.10;;
61460;SDS011;47325;50.506;4.472;2023-09-19T19:33:33;3.00;;;0.90;;
61460;SDS011;47325;50.506;4.472;2023-09-19T19:39:26;3.00;;;1.00;;
61460;SDS011;47325;50.506;4.472;2023-09-19T19:45:17;4.60;;;1.10;;
61460;SDS011;47325;50.506;4.472;2023-09-19T19:51:08;2.60;;;1.00;;
61460;SDS011;47325;50.506;4.472;2023-09-19T19:57:18;3.60;;;1.00;;
61460;SDS011;47325;50.506;4.472;2023-09-19T20:03:24;2.50;;;1.00;;
61460;SDS011;47325;50.506;4.472;2023-09-19T20:09:16;3.00;;;1.10;;
61460;SDS011;47325;50.506;4.472;2023-09-19T20:15:01;2.80;;;1.10;;
61460;SDS011;47325;50.506;4.472;2023-09-19T20:20:47;2.00;;;1.00;;
61460;SDS011;47325;50.506;4.472;2023-09-19T20:26:32;3.00;;;1.20;;
61460;SDS011;47325;50.506;4.472;2023-09-19T20:32:17;3.20;;;1.10;;
61460;SDS011;47325;50.506;4.472;2023-09-19T20:38:03;2.50;;;1.10;;
61460;SDS011;47325;50.506;4.472;2023-09-19T20:43:55;2.50;;;1.10;;
61460;SDS011;47325;50.506;4.472;2023-09-19T20:49:47;2.60;;;1.00;;
61460;SDS011;47325;50.506;4.472;2023-09-19T20:55:39;4.20;;;1.30;;
61460;SDS011;47325;50.506;4.472;2023-09-19T21:01:30;3.20;;;1.00;;
61460;SDS011;47325;50.506;4.472;2023-09-19T21:07:17;2.90;;;1.10;;
61460;SDS011;47325;50.506;4.472;2023-09-19T21:13:02;3.30;;;1.20;;
61460;SDS011;47325;50.506;4.472;2023-09-19T21:18:52;2.00;;;0.90;;
61460;SDS011;47325;50.506;4.472;2023-09-19T21:24:57;2.80;;;1.10;;
61460;SDS011;47325;50.506;4.472;2023-09-19T21:30:42;3.90;;;1.20;;
61460;SDS011;47325;50.506;4.472;2023-09-19T21:36:30;2.40;;;1.10;;
61460;SDS011;47325;50.506;4.472;2023-09-19T21:42:16;3.10;;;1.20;;
61460;SDS011;47325;50.506;4.472;2023-09-19T21:48:01;3.20;;;1.20;;
61460;SDS011;47325;50.506;4.472;2023-09-19T21:53:48;3.30;;;1.10;;
61460;SDS011;47325;50.506;4.472;2023-09-19T21:59:36;3.20;;;1.20;;
61460;SDS011;47325;50.506;4.472;2023-09-19T22:05:22;4.60;;;1.00;;
61460;SDS011;47325;50.506;4.472;2023-09-19T22:11:10;3.20;;;1.10;;
61460;SDS011;47325;50.506;4.472;2023-09-19T22:16:57;2.70;;;1.00;;
61460;SDS011;47325;50.506;4.472;2023-09-19T22:22:51;2.70;;;1.20;;
61460;SDS011;47325;50.506;4.472;2023-09-19T22:28:37;3.00;;;1.20;;
61460;SDS011;47325;50.506;4.472;2023-09-19T22:34:25;2.80;;;1.10;;
61460;SDS011;47325;50.506;4.472;2023-09-19T22:40:10;3.00;;;1.20;;
61460;SDS011;47325;50.506;4.472;2023-09-19T22:45:54;2.30;;;1.00;;
61460;SDS011;47325;50.506;4.472;2023-09-19T22:51:46;3.60;;;1.30;;
61460;SDS011;47325;50.506;4.472;2023-09-19T22:57:31;2.60;;;1.10;;
61460;SDS011;47325;50.506;4.472;2023-09-19T23:03:18;4.10;;;1.20;;
61460;SDS011;47325;50.506;4.472;2023-09-19T23:09:09;3.00;;;1.10;;
61460;SDS011;47325;50.506;4.472;2023-09-19T23:14:54;2.50;;;1.10;;
61460;SDS011;47325;50.506;4.472;2023-09-19T23:20:39;2.80;;;1.20;;
61460;SDS011;47325;50.506;4.472;2023-09-19T23:26:24;3.80;;;1.10;;
61460;SDS011;47325;50.506;4.472;2023-09-19T23:32:16;2.70;;;1.20;;
61460;SDS011;47325;50.506;4.472;2023-09-19T23:38:07;2.60;;;1.10;;
61460;SDS011;47325;50.506;4.472;2023-09-19T23:43:59;2.50;;;1.00;;
61460;SDS011;47325;50.506;4.472;2023-09-19T23:49:44;3.60;;;1.10;;
61460;SDS011;47325;50.506;4.472;2023-09-19T23:55:30;1.90;;;1.00;;
